Time;durP1;ratioP1;P1;durP2;ratioP2;P2;SDS_P1;SDS_P2;PMS_P1;PMS_P2;Temp;Humidity;BMP_temperature;BMP_pressure;BME280_temperature;BME280_humidity;BME280_pressure;Samples;Min_cycle;Max_cycle;Signal;HPM_P1;HPM_P2
2022/05/10 00:00:07;;;;;;;23.43;21.07;;;;;21.60;100939.00;;;;2068544;28;20699;-48
2022/05/10 00:01:21;;;;;;;23.05;20.80;;;;;21.60;100928.00;;;;2069814;28;20590;-48
2022/05/10 00:02:22;;;;;;;21.80;19.67;;;;;21.60;100941.00;;;;2070733;28;20209;-48
2022/05/10 00:03:24;;;;;;;22.10;20.00;;;;;21.60;100935.00;;;;2077448;28;20280;-49
2022/05/10 00:04:24;;;;;;;21.58;19.42;;;;;21.60;100927.00;;;;2077508;28;20221;-48
2022/05/10 00:05:30;;;;;;;21.70;19.57;;;;;21.60;100922.00;;;;2076333;28;20217;-50
2022/05/10 00:06:42;;;;;;;21.95;19.75;;;;;21.60;100931.00;;;;2061248;28;20381;-50
2022/05/10 00:07:42;;;;;;;21.90;19.73;;;;;21.60;100938.00;;;;2063963;28;20218;-49
2022/05/10 00:08:43;;;;;;;21.90;19.70;;;;;21.60;100927.00;;;;2060113;28;20774;-49
2022/05/10 00:09:43;;;;;;;21.60;19.30;;;;;21.60;100926.00;;;;2060067;28;20448;-50
2022/05/10 00:10:44;;;;;;;21.03;19.10;;;;;21.60;100931.00;;;;2068870;28;20213;-50
2022/05/10 00:11:44;;;;;;;21.33;19.33;;;;;21.60;100933.00;;;;2067652;28;20205;-50
2022/05/10 00:12:45;;;;;;;20.73;18.63;;;;;21.60;100936.00;;;;2068635;28;20458;-50
2022/05/10 00:13:45;;;;;;;20.83;18.60;;;;;21.60;100932.00;;;;2075018;28;20210;-47
2022/05/10 00:14:45;;;;;;;20.17;18.37;;;;;21.60;100931.00;;;;2077660;28;20768;-47
2022/05/10 00:15:47;;;;;;;20.87;18.87;;;;;21.60;100929.00;;;;2076894;28;20857;-48
2022/05/10 00:16:51;;;;;;;20.23;18.25;;;;;21.50;100928.00;;;;2077377;28;20214;-50
2022/05/10 00:17:51;;;;;;;20.30;18.30;;;;;21.60;100923.00;;;;2076628;28;20727;-48
2022/05/10 00:18:51;;;;;;;20.23;18.33;;;;;21.60;100928.00;;;;2069097;28;20253;-48
2022/05/10 00:19:52;;;;;;;21.13;19.23;;;;;21.60;100925.00;;;;2076507;28;20515;-48
2022/05/10 00:20:52;;;;;;;20.10;18.20;;;;;21.60;100927.00;;;;2077415;28;20264;-51
2022/05/10 00:21:53;;;;;;;21.70;19.60;;;;;21.60;100925.00;;;;2076652;28;20225;-52
2022/05/10 00:22:53;;;;;;;21.00;18.93;;;;;21.60;100919.00;;;;2068656;28;20218;-47
2022/05/10 00:23:53;;;;;;;18.57;16.67;;;;;21.60;100925.00;;;;2075885;28;20232;-47
2022/05/10 00:24:54;;;;;;;18.70;16.80;;;;;21.60;100914.00;;;;2077368;28;20228;-47
2022/05/10 00:25:54;;;;;;;21.73;19.63;;;;;21.60;100915.00;;;;2077279;28;20434;-47
2022/05/10 00:26:55;;;;;;;19.10;17.30;;;;;21.60;100924.00;;;;2077645;28;20217;-48
2022/05/10 00:27:56;;;;;;;20.13;18.30;;;;;21.60;100923.00;;;;2077760;28;20224;-53
2022/05/10 00:28:56;;;;;;;20.27;18.30;;;;;21.60;100917.00;;;;2077734;28;20487;-49
2022/05/10 00:29:56;;;;;;;19.10;17.30;;;;;21.60;100927.00;;;;2072410;28;20332;-48
2022/05/10 00:30:57;;;;;;;21.20;19.20;;;;;21.60;100919.00;;;;2069951;28;20565;-48
2022/05/10 00:31:57;;;;;;;20.30;18.40;;;;;21.60;100921.00;;;;2069952;28;20268;-49
2022/05/10 00:32:57;;;;;;;20.60;18.60;;;;;21.60;100921.00;;;;2070084;28;20226;-49
2022/05/10 00:33:58;;;;;;;18.90;17.10;;;;;21.60;100923.00;;;;2069044;28;20229;-49
2022/05/10 00:34:58;;;;;;;20.07;18.07;;;;;21.60;100911.00;;;;2067553;28;20226;-50
2022/05/10 00:35:59;;;;;;;18.50;16.80;;;;;21.60;100915.00;;;;2076531;28;20305;-49
2022/05/10 00:36:59;;;;;;;20.50;18.40;;;;;21.60;100918.00;;;;2068959;28;20218;-48
2022/05/10 00:38:00;;;;;;;19.10;17.17;;;;;21.60;100914.00;;;;2069037;28;20777;-49
2022/05/10 00:39:01;;;;;;;19.40;17.60;;;;;21.60;100913.00;;;;2066511;28;20260;-49
2022/05/10 00:40:01;;;;;;;18.80;17.10;;;;;21.60;100915.00;;;;2060690;28;20223;-47
2022/05/10 00:41:56;;;;;;;18.83;17.20;;;;;21.60;100901.00;;;;2069968;28;20679;-48
2022/05/10 00:43:17;;;;;;;19.60;17.77;;;;;21.60;100916.00;;;;2073560;28;20701;-49
2022/05/10 00:44:20;;;;;;;19.00;17.13;;;;;21.60;100911.00;;;;2065509;28;20280;-48
2022/05/10 00:45:26;;;;;;;20.23;18.23;;;;;21.50;100907.00;;;;2062089;28;20214;-52
2022/05/10 00:46:30;;;;;;;18.88;16.98;;;;;21.60;100910.00;;;;2061482;28;20288;-51
2022/05/10 00:48:10;;;;;;;18.30;16.50;;;;;21.50;100906.00;;;;2061616;28;20215;-50
2022/05/10 00:49:20;;;;;;;17.65;15.95;;;;;21.50;100908.00;;;;2073115;28;20279;-49
2022/05/10 00:50:24;;;;;;;18.58;16.88;;;;;21.60;100915.00;;;;2077314;28;20217;-48
2022/05/10 00:51:45;;;;;;;18.13;16.42;;;;;21.60;100912.00;;;;2068217;28;20625;-50
2022/05/10 00:52:57;;;;;;;17.55;15.82;;;;;21.50;100913.00;;;;2068250;28;20328;-48
2022/05/10 00:54:02;;;;;;;17.48;15.88;;;;;21.50;100902.00;;;;2077312;28;20796;-50
2022/05/10 00:55:07;;;;;;;16.17;14.75;;;;;21.50;100907.00;;;;2069004;28;20261;-47
2022/05/10 00:56:12;;;;;;;17.40;15.80;;;;;21.50;100902.00;;;;2060748;28;20218;-50
2022/05/10 00:57:29;;;;;;;16.38;14.85;;;;;21.50;100909.00;;;;2061212;28;20221;-50
2022/05/10 00:58:44;;;;;;;18.25;16.45;;;;;21.50;100910.00;;;;2049868;28;20254;-48
2022/05/10 01:00:07;;;;;;;16.90;15.35;;;;;21.50;100909.00;;;;2052752;28;20224;-51
2022/05/10 01:01:08;;;;;;;17.92;16.15;;;;;21.50;100903.00;;;;2072163;28;20306;-49
2022/05/10 01:02:15;;;;;;;17.87;16.13;;;;;21.50;100903.00;;;;2076687;28;20213;-47
2022/05/10 01:03:32;;;;;;;17.33;15.70;;;;;21.50;100895.00;;;;2070587;28;20245;-50
2022/05/10 01:04:37;;;;;;;16.58;15.07;;;;;21.30;100898.00;;;;2077205;28;20645;-49
2022/05/10 01:05:47;;;;;;;16.67;15.13;;;;;21.50;100899.00;;;;2068965;28;20229;-52
2022/05/10 01:07:13;;;;;;;17.33;15.68;;;;;21.50;100900.00;;;;2061890;28;20638;-49
2022/05/10 01:08:15;;;;;;;17.63;15.93;;;;;21.30;100898.00;;;;2067897;28;20429;-49
2022/05/10 01:09:32;;;;;;;17.38;15.68;;;;;21.50;100891.00;;;;2062531;28;20778;-49
2022/05/10 01:10:50;;;;;;;18.20;16.50;;;;;21.50;100886.00;;;;2060672;28;20771;-48
2022/05/10 01:12:03;;;;;;;16.50;15.00;;;;;21.50;100892.00;;;;2063669;28;20272;-49
2022/05/10 01:13:13;;;;;;;16.80;15.20;;;;;21.50;100887.00;;;;2067249;28;20213;-49
2022/05/10 01:14:18;;;;;;;17.00;15.40;;;;;21.50;100893.00;;;;2068854;28;20220;-52
2022/05/10 01:15:20;;;;;;;16.45;15.02;;;;;21.50;100877.00;;;;2074419;28;20249;-47
2022/05/10 01:16:21;;;;;;;16.55;14.95;;;;;21.50;100894.00;;;;2076929;28;20218;-47
2022/05/10 01:17:22;;;;;;;16.30;14.90;;;;;21.50;100895.00;;;;2065295;28;20198;-51
2022/05/10 01:18:22;;;;;;;16.67;15.00;;;;;21.50;100896.00;;;;2069542;28;20288;-50
2022/05/10 01:19:22;;;;;;;17.37;15.77;;;;;21.50;100892.00;;;;2069782;28;20206;-47
2022/05/10 01:20:41;;;;;;;16.03;14.53;;;;;21.50;100891.00;;;;2075696;28;20612;-47
2022/05/10 01:22:03;;;;;;;16.90;15.05;;;;;21.50;100888.00;;;;2060665;28;20282;-52
2022/05/10 01:23:11;;;;;;;17.77;16.08;;;;;21.50;100892.00;;;;2071555;28;20259;-49
2022/05/10 01:24:33;;;;;;;16.02;14.52;;;;;21.50;100889.00;;;;2070147;28;20698;-47
2022/05/10 01:25:46;;;;;;;15.98;14.38;;;;;21.50;100880.00;;;;2067615;28;20226;-49
2022/05/10 01:27:12;;;;;;;16.08;14.57;;;;;21.50;100890.00;;;;2062098;28;20316;-52
2022/05/10 01:28:39;;;;;;;16.55;15.02;;;;;21.50;100882.00;;;;2069426;28;20225;-46
2022/05/10 01:29:49;;;;;;;17.10;15.50;;;;;21.40;100877.00;;;;2068734;28;20304;-48
2022/05/10 01:30:50;;;;;;;15.75;14.35;;;;;21.50;100876.00;;;;2060826;28;20237;-47
2022/05/10 01:33:29;;;;;;;15.63;14.10;;;;;21.50;100874.00;;;;2068698;28;20210;-47
2022/05/10 01:33:31;;;;;;;14.98;13.55;;;;;21.50;100874.00;;;;2068753;28;20206;-50
2022/05/10 01:34:32;;;;;;;15.35;13.85;;;;;21.50;100869.00;;;;2069590;28;20222;-48
2022/05/10 01:35:33;;;;;;;15.83;14.13;;;;;21.50;100877.00;;;;2067734;28;20206;-48
2022/05/10 01:36:55;;;;;;;16.42;14.93;;;;;21.50;100873.00;;;;2075217;28;20229;-48
2022/05/10 01:37:58;;;;;;;16.88;15.35;;;;;21.50;100875.00;;;;2075164;28;20686;-51
2022/05/10 01:39:17;;;;;;;16.80;15.25;;;;;21.50;100870.00;;;;2074746;28;20867;-50
2022/05/10 01:40:20;;;;;;;16.13;14.63;;;;;21.50;100863.00;;;;2070586;28;20675;-50
2022/05/10 01:41:20;;;;;;;16.48;14.98;;;;;21.50;100863.00;;;;2070109;28;20214;-47
2022/05/10 01:42:24;;;;;;;15.07;13.77;;;;;21.50;100865.00;;;;2071552;28;20685;-47
2022/05/10 01:43:40;;;;;;;15.45;14.05;;;;;21.50;100871.00;;;;2074381;28;20210;-47
2022/05/10 01:45:06;;;;;;;16.73;15.15;;;;;21.50;100856.00;;;;2072400;28;20289;-48
2022/05/10 01:46:18;;;;;;;15.27;13.80;;;;;21.50;100863.00;;;;2073113;28;20271;-49
2022/05/10 01:47:30;;;;;;;15.40;14.00;;;;;21.50;100863.00;;;;2073811;28;20217;-48
2022/05/10 01:48:32;;;;;;;15.93;14.52;;;;;21.50;100857.00;;;;2066819;28;20238;-48
2022/05/10 01:49:54;;;;;;;15.23;13.95;;;;;21.50;100859.00;;;;2060989;28;20648;-49
2022/05/10 01:50:57;;;;;;;14.55;13.05;;;;;21.50;100859.00;;;;2068244;28;20641;-48
2022/05/10 01:52:02;;;;;;;14.77;13.38;;;;;21.50;100859.00;;;;2070807;28;20750;-49
2022/05/10 01:53:08;;;;;;;14.73;13.32;;;;;21.50;100855.00;;;;2073274;28;20312;-50
2022/05/10 01:54:34;;;;;;;15.57;14.00;;;;;21.50;100864.00;;;;2064344;28;20218;-49
2022/05/10 01:56:13;;;;;;;14.65;13.25;;;;;21.50;100857.00;;;;2062058;28;20222;-47
2022/05/10 01:57:15;;;;;;;14.30;12.90;;;;;21.50;100844.00;;;;2074211;28;20220;-47
2022/05/10 01:58:26;;;;;;;14.13;12.82;;;;;21.50;100861.00;;;;2070685;28;20229;-48
2022/05/10 01:59:26;;;;;;;14.57;13.23;;;;;21.50;100860.00;;;;2061515;28;20354;-52
2022/05/10 02:00:27;;;;;;;13.90;12.70;;;;;21.50;100853.00;;;;2076563;28;20205;-50
2022/05/10 02:01:33;;;;;;;13.13;12.00;;;;;21.50;100860.00;;;;2074179;28;20202;-48
2022/05/10 02:02:33;;;;;;;14.30;13.00;;;;;21.50;100857.00;;;;2067626;28;20210;-51
2022/05/10 02:03:42;;;;;;;14.10;12.90;;;;;21.50;100847.00;;;;2070397;28;20249;-50
2022/05/10 02:04:43;;;;;;;13.75;12.55;;;;;21.50;100860.00;;;;2063218;28;20219;-47
2022/05/10 02:05:48;;;;;;;13.90;12.70;;;;;21.50;100856.00;;;;2059184;28;20219;-49
2022/05/10 02:07:02;;;;;;;14.57;13.27;;;;;21.50;100858.00;;;;2075625;28;20232;-52
2022/05/10 02:08:07;;;;;;;14.15;12.80;;;;;21.50;100856.00;;;;2076653;28;20799;-48
2022/05/10 02:09:10;;;;;;;13.90;12.60;;;;;21.50;100855.00;;;;2078601;28;20245;-49
2022/05/10 02:10:25;;;;;;;14.85;13.45;;;;;21.40;100857.00;;;;2073961;28;20217;-49
2022/05/10 02:11:26;;;;;;;14.32;13.02;;;;;21.50;100856.00;;;;2060536;28;20299;-47
2022/05/10 02:12:34;;;;;;;13.90;12.63;;;;;21.40;100857.00;;;;2049737;28;20607;-49
2022/05/10 02:13:38;;;;;;;14.30;13.02;;;;;21.50;100861.00;;;;2050054;28;20874;-48
2022/05/10 02:14:58;;;;;;;14.95;13.65;;;;;21.50;100849.00;;;;2063725;28;20277;-49
2022/05/10 02:16:00;;;;;;;14.38;13.07;;;;;21.50;100865.00;;;;2078414;28;20224;-47
2022/05/10 02:17:19;;;;;;;13.50;12.40;;;;;21.50;100871.00;;;;2070010;28;20872;-48
2022/05/10 02:18:24;;;;;;;13.35;12.15;;;;;21.50;100857.00;;;;2068251;28;20242;-49
2022/05/10 02:19:27;;;;;;;12.75;11.65;;;;;21.40;100858.00;;;;2069986;28;20667;-49
2022/05/10 02:20:33;;;;;;;13.10;12.00;;;;;21.50;100857.00;;;;2070285;28;20705;-48
2022/05/10 02:21:38;;;;;;;14.00;12.80;;;;;21.50;100862.00;;;;2070397;28;20214;-49
2022/05/10 02:22:49;;;;;;;13.73;12.50;;;;;21.40;100858.00;;;;2070182;28;20218;-49
2022/05/10 02:23:50;;;;;;;12.93;11.90;;;;;21.40;100864.00;;;;2063728;28;20609;-48
2022/05/10 02:24:55;;;;;;;12.57;11.50;;;;;21.40;100865.00;;;;2069922;28;20218;-49
2022/05/10 02:26:01;;;;;;;12.70;11.70;;;;;21.40;100856.00;;;;2069347;28;20226;-50
2022/05/10 02:27:05;;;;;;;13.63;12.32;;;;;21.50;100865.00;;;;2070132;28;20225;-49
2022/05/10 02:28:12;;;;;;;13.20;11.98;;;;;21.50;100865.00;;;;2070105;28;20316;-49
2022/05/10 02:29:19;;;;;;;13.20;12.10;;;;;21.40;100862.00;;;;2070265;28;20253;-48
2022/05/10 02:30:22;;;;;;;12.60;11.50;;;;;21.40;100852.00;;;;2073238;28;20259;-49
2022/05/10 02:31:24;;;;;;;13.77;12.57;;;;;21.50;100868.00;;;;2078641;28;20206;-49
2022/05/10 02:33:47;;;;;;;12.98;11.88;;;;;21.40;100870.00;;;;2072901;28;20332;-51
2022/05/10 02:34:47;;;;;;;13.17;12.07;;;;;21.40;100867.00;;;;2072601;28;20245;-49
2022/05/10 02:35:59;;;;;;;13.30;12.17;;;;;21.40;100862.00;;;;2069241;28;20461;-48
2022/05/10 02:36:59;;;;;;;13.52;12.23;;;;;21.40;100866.00;;;;2078137;28;20213;-47
2022/05/10 02:37:59;;;;;;;13.17;11.97;;;;;21.40;100866.00;;;;2078892;28;20229;-47
2022/05/10 02:39:00;;;;;;;13.00;11.90;;;;;21.40;100864.00;;;;2078390;28;20240;-48
2022/05/10 02:40:00;;;;;;;12.00;10.90;;;;;21.20;100866.00;;;;2078842;28;20209;-52
2022/05/10 02:41:09;;;;;;;13.20;12.10;;;;;21.40;100859.00;;;;2078950;28;20272;-48
2022/05/10 02:42:11;;;;;;;13.20;12.10;;;;;21.40;100859.00;;;;2078151;28;20217;-48
2022/05/10 02:43:13;;;;;;;13.10;12.00;;;;;21.40;100856.00;;;;2071380;28;20215;-48
2022/05/10 02:44:14;;;;;;;12.50;11.40;;;;;21.40;100853.00;;;;2070070;28;20210;-47
2022/05/10 02:45:18;;;;;;;13.10;11.90;;;;;21.40;100859.00;;;;2069736;28;20630;-47
2022/05/10 02:46:18;;;;;;;12.43;11.32;;;;;21.40;100858.00;;;;2076051;28;20607;-49
2022/05/10 02:47:39;;;;;;;11.70;10.70;;;;;21.40;100854.00;;;;2070269;28;20218;-49
2022/05/10 02:48:39;;;;;;;13.07;11.85;;;;;21.40;100854.00;;;;2069687;28;20597;-48
2022/05/10 02:49:40;;;;;;;12.00;10.93;;;;;21.40;100853.00;;;;2069701;28;20210;-48
2022/05/10 02:50:41;;;;;;;12.10;11.00;;;;;21.40;100849.00;;;;2070027;28;20218;-49
2022/05/10 02:51:41;;;;;;;12.17;11.10;;;;;21.40;100846.00;;;;2070065;28;20462;-48
2022/05/10 02:52:42;;;;;;;11.53;10.63;;;;;21.40;100839.00;;;;2070800;28;20214;-49
2022/05/10 02:53:42;;;;;;;12.03;11.00;;;;;21.40;100837.00;;;;2070688;28;20207;-48
2022/05/10 02:54:42;;;;;;;11.50;10.50;;;;;21.40;100835.00;;;;2069665;28;20221;-49
2022/05/10 02:55:49;;;;;;;12.83;11.40;;;;;21.40;100836.00;;;;2068857;28;20226;-48
2022/05/10 02:56:50;;;;;;;11.50;10.60;;;;;21.40;100831.00;;;;2069812;28;20220;-48
2022/05/10 02:57:51;;;;;;;10.90;10.00;;;;;21.40;100836.00;;;;2069809;28;20218;-48
2022/05/10 02:59:11;;;;;;;11.75;10.85;;;;;21.40;100835.00;;;;2069872;28;20238;-49
2022/05/10 03:00:12;;;;;;;11.15;10.25;;;;;21.40;100834.00;;;;2066365;28;20762;-49
2022/05/10 03:01:31;;;;;;;12.55;11.45;;;;;21.40;100832.00;;;;2061547;28;20672;-48
2022/05/10 03:02:33;;;;;;;11.70;10.70;;;;;21.40;100820.00;;;;2081548;28;20976;-49
2022/05/10 03:03:34;;;;;;;11.38;10.40;;;;;21.40;100830.00;;;;2069927;28;20264;-49
2022/05/10 03:04:43;;;;;;;11.13;10.23;;;;;21.40;100829.00;;;;2069703;28;20886;-49
2022/05/10 03:05:43;;;;;;;13.02;11.80;;;;;21.40;100820.00;;;;2078115;28;20248;-48
2022/05/10 03:06:44;;;;;;;12.10;11.00;;;;;21.40;100819.00;;;;2078683;28;20213;-49
2022/05/10 03:07:45;;;;;;;11.07;10.18;;;;;21.40;100821.00;;;;2078118;28;20638;-48
2022/05/10 03:08:46;;;;;;;10.37;9.53;;;;;21.40;100823.00;;;;2078436;28;20225;-48
2022/05/10 03:09:46;;;;;;;11.73;10.73;;;;;21.40;100822.00;;;;2078318;28;20288;-49
2022/05/10 03:10:46;;;;;;;11.07;10.17;;;;;21.40;100822.00;;;;2078388;28;20213;-48
2022/05/10 03:11:47;;;;;;;10.67;9.67;;;;;21.40;100821.00;;;;2078052;28;20221;-49
2022/05/10 03:12:47;;;;;;;10.43;9.57;;;;;21.40;100815.00;;;;2077708;28;20233;-49
2022/05/10 03:13:50;;;;;;;11.00;10.10;;;;;21.40;100815.00;;;;2078171;28;20214;-48
2022/05/10 03:14:50;;;;;;;11.20;10.30;;;;;21.40;100813.00;;;;2078249;28;20239;-49
2022/05/10 03:15:51;;;;;;;10.53;9.67;;;;;21.40;100815.00;;;;2077428;28;20202;-47
2022/05/10 03:16:51;;;;;;;11.20;10.27;;;;;21.40;100809.00;;;;2068257;28;20244;-47
2022/05/10 03:17:51;;;;;;;10.77;9.83;;;;;21.40;100809.00;;;;2077944;28;20224;-48
2022/05/10 03:18:52;;;;;;;11.10;10.10;;;;;21.40;100804.00;;;;2078118;28;20221;-48
2022/05/10 03:19:52;;;;;;;11.00;10.00;;;;;21.40;100812.00;;;;2078258;28;20936;-48
2022/05/10 03:20:53;;;;;;;9.87;9.07;;;;;21.40;100815.00;;;;2076160;28;20565;-49
2022/05/10 03:21:53;;;;;;;11.00;10.03;;;;;21.40;100811.00;;;;2077874;28;20719;-49
2022/05/10 03:22:54;;;;;;;10.40;9.60;;;;;21.40;100814.00;;;;2078408;28;20214;-49
2022/05/10 03:23:55;;;;;;;10.68;9.77;;;;;21.40;100816.00;;;;2078774;28;20220;-49
2022/05/10 03:24:55;;;;;;;10.77;9.70;;;;;21.40;100809.00;;;;2073739;28;20214;-49
2022/05/10 03:25:56;;;;;;;10.93;9.93;;;;;21.40;100805.00;;;;2069481;28;20246;-49
2022/05/10 03:26:56;;;;;;;10.30;9.40;;;;;21.40;100810.00;;;;2070169;28;20309;-49
2022/05/10 03:27:59;;;;;;;10.40;9.60;;;;;21.40;100810.00;;;;2061349;28;20219;-49
2022/05/10 03:28:59;;;;;;;11.07;10.27;;;;;21.40;100813.00;;;;2061911;28;20227;-49
2022/05/10 03:29:59;;;;;;;9.47;8.67;;;;;21.40;100816.00;;;;2070326;28;20263;-47
2022/05/10 03:31:00;;;;;;;10.40;9.57;;;;;21.40;100809.00;;;;2070426;28;20259;-48
2022/05/10 03:32:00;;;;;;;11.27;10.23;;;;;21.40;100810.00;;;;2074090;28;20213;-48
2022/05/10 03:33:00;;;;;;;9.67;8.87;;;;;21.40;100809.00;;;;2078615;28;20221;-48
2022/05/10 03:35:20;;;;;;;10.65;9.80;;;;;21.40;100806.00;;;;2075809;28;20233;-48
2022/05/10 03:36:20;;;;;;;10.33;9.43;;;;;21.40;100796.00;;;;2078106;28;20217;-48
2022/05/10 03:37:22;;;;;;;9.70;8.90;;;;;21.40;100800.00;;;;2077974;28;20202;-49
2022/05/10 03:38:22;;;;;;;10.50;9.60;;;;;21.40;100798.00;;;;2078169;28;20271;-48
2022/05/10 03:39:22;;;;;;;10.50;9.70;;;;;21.40;100801.00;;;;2078444;28;20467;-48
2022/05/10 03:40:23;;;;;;;9.70;8.90;;;;;21.40;100799.00;;;;2077797;28;20224;-48
2022/05/10 03:41:23;;;;;;;10.47;9.60;;;;;21.40;100803.00;;;;2077882;28;20217;-48
2022/05/10 03:42:23;;;;;;;9.97;9.17;;;;;21.40;100803.00;;;;2078418;28;20218;-49
2022/05/10 03:43:26;;;;;;;10.57;9.73;;;;;21.40;100807.00;;;;2078517;28;20271;-49
2022/05/10 03:44:26;;;;;;;10.23;9.32;;;;;21.40;100807.00;;;;2078420;28;20219;-49
2022/05/10 03:45:27;;;;;;;9.77;8.97;;;;;21.40;100802.00;;;;2062178;28;20882;-49
2022/05/10 03:46:27;;;;;;;9.53;8.73;;;;;21.40;100798.00;;;;2069004;28;20705;-49
2022/05/10 03:47:30;;;;;;;11.40;10.40;;;;;21.40;100799.00;;;;2077582;28;20217;-50
2022/05/10 03:48:30;;;;;;;10.27;9.48;;;;;21.40;100800.00;;;;2078125;28;20241;-49
2022/05/10 03:49:31;;;;;;;10.13;9.17;;;;;21.40;100797.00;;;;2078348;28;20214;-48
2022/05/10 03:50:31;;;;;;;10.10;9.30;;;;;21.40;100798.00;;;;2077435;28;20236;-47
2022/05/10 03:51:31;;;;;;;10.20;9.30;;;;;21.40;100796.00;;;;2077621;28;20217;-47
2022/05/10 03:52:32;;;;;;;10.47;9.57;;;;;21.30;100794.00;;;;2078546;28;20220;-49
2022/05/10 03:53:32;;;;;;;10.70;9.70;;;;;21.40;100796.00;;;;2078321;28;20214;-49
2022/05/10 03:54:32;;;;;;;9.60;8.80;;;;;21.40;100797.00;;;;2078424;28;20219;-49
2022/05/10 03:55:33;;;;;;;9.80;9.00;;;;;21.40;100796.00;;;;2077676;28;20209;-48
2022/05/10 03:56:36;;;;;;;9.63;8.63;;;;;21.40;100801.00;;;;2078278;28;20304;-49
2022/05/10 03:57:36;;;;;;;9.65;8.75;;;;;21.40;100794.00;;;;2077833;28;20225;-49
2022/05/10 03:58:37;;;;;;;10.03;9.13;;;;;21.40;100798.00;;;;2078233;28;20233;-49
2022/05/10 03:59:41;;;;;;;9.13;8.43;;;;;21.40;100792.00;;;;2078283;28;20213;-49
2022/05/10 04:00:41;;;;;;;10.25;9.35;;;;;21.40;100789.00;;;;2077974;28;20300;-49
2022/05/10 04:01:42;;;;;;;9.73;8.87;;;;;21.40;100794.00;;;;2077583;28;20210;-49
2022/05/10 04:02:43;;;;;;;9.90;9.10;;;;;21.40;100786.00;;;;2078312;28;20214;-49
2022/05/10 04:03:43;;;;;;;9.50;8.70;;;;;21.40;100792.00;;;;2078356;28;20630;-49
2022/05/10 04:04:43;;;;;;;10.13;9.23;;;;;21.40;100789.00;;;;2078246;28;20209;-48
2022/05/10 04:05:45;;;;;;;9.40;8.60;;;;;21.40;100786.00;;;;2077453;28;20217;-49
2022/05/10 04:06:45;;;;;;;8.90;8.10;;;;;21.40;100786.00;;;;2073956;28;20214;-49
2022/05/10 04:07:45;;;;;;;9.70;8.80;;;;;21.40;100796.00;;;;2069951;28;20300;-49
2022/05/10 04:08:46;;;;;;;9.47;8.77;;;;;21.40;100787.00;;;;2069966;28;20211;-49
2022/05/10 04:09:46;;;;;;;9.00;8.30;;;;;21.40;100789.00;;;;2069827;28;20210;-49
2022/05/10 04:10:47;;;;;;;9.60;8.80;;;;;21.40;100790.00;;;;2069042;28;20353;-49
2022/05/10 04:11:47;;;;;;;9.77;8.97;;;;;21.40;100781.00;;;;2069305;28;20273;-49
2022/05/10 04:12:47;;;;;;;9.20;8.30;;;;;21.40;100790.00;;;;2069520;28;20218;-48
2022/05/10 04:13:48;;;;;;;10.10;9.20;;;;;21.40;100786.00;;;;2069505;28;20570;-49
2022/05/10 04:14:48;;;;;;;9.00;8.20;;;;;21.40;100791.00;;;;2070022;28;20272;-49
2022/05/10 04:15:48;;;;;;;8.60;7.90;;;;;21.40;100787.00;;;;2069336;28;20214;-49
2022/05/10 04:16:48;;;;;;;10.03;9.13;;;;;21.40;100783.00;;;;2069987;28;20310;-49
2022/05/10 04:17:49;;;;;;;8.67;8.07;;;;;21.40;100784.00;;;;2070039;28;20226;-49
2022/05/10 04:18:49;;;;;;;9.80;9.00;;;;;21.40;100791.00;;;;2070037;28;20221;-49
2022/05/10 04:19:49;;;;;;;8.60;8.00;;;;;21.40;100791.00;;;;2069193;28;20288;-48
2022/05/10 04:20:50;;;;;;;9.07;8.27;;;;;21.40;100787.00;;;;2070756;28;20214;-48
2022/05/10 04:21:50;;;;;;;8.27;7.57;;;;;21.40;100787.00;;;;2077843;28;20209;-49
2022/05/10 04:22:50;;;;;;;9.20;8.50;;;;;21.40;100787.00;;;;2078128;28;20244;-49
2022/05/10 04:23:51;;;;;;;8.80;8.10;;;;;21.40;100786.00;;;;2078211;28;20865;-49
2022/05/10 04:24:51;;;;;;;8.80;8.13;;;;;21.40;100789.00;;;;2078013;28;20224;-49
2022/05/10 04:25:51;;;;;;;9.60;8.70;;;;;21.40;100787.00;;;;2077487;28;20209;-49
2022/05/10 04:26:52;;;;;;;9.50;8.70;;;;;21.40;100785.00;;;;2078063;28;20209;-48
2022/05/10 04:27:52;;;;;;;9.37;8.63;;;;;21.40;100787.00;;;;2077430;28;20360;-48
2022/05/10 04:28:54;;;;;;;9.03;8.33;;;;;21.40;100788.00;;;;2078019;28;20225;-49
2022/05/10 04:29:55;;;;;;;8.90;8.20;;;;;21.40;100784.00;;;;2077894;28;20296;-49
2022/05/10 04:30:55;;;;;;;9.33;8.63;;;;;21.40;100781.00;;;;2078331;28;20279;-49
2022/05/10 04:31:55;;;;;;;9.20;8.50;;;;;21.40;100787.00;;;;2077944;28;20213;-49
2022/05/10 04:32:56;;;;;;;8.93;8.23;;;;;21.40;100784.00;;;;2077592;28;20252;-49
2022/05/10 04:33:56;;;;;;;9.17;8.37;;;;;21.40;100780.00;;;;2075768;28;20222;-48
2022/05/10 04:34:56;;;;;;;10.33;8.50;;;;;21.40;100786.00;;;;2068515;28;20217;-48
2022/05/10 04:35:57;;;;;;;9.20;8.40;;;;;21.40;100786.00;;;;2067784;28;20226;-48
2022/05/10 04:36:57;;;;;;;8.80;8.10;;;;;21.40;100783.00;;;;2069052;28;20301;-49
2022/05/10 04:38:03;;;;;;;8.93;8.13;;;;;21.40;100787.00;;;;2069676;28;20252;-49
2022/05/10 04:39:04;;;;;;;8.88;8.02;;;;;21.40;100786.00;;;;2069401;28;20214;-49
2022/05/10 04:41:29;;;;;;;8.68;7.97;;;;;21.40;100787.00;;;;2070872;28;20218;-48
2022/05/10 04:42:30;;;;;;;8.10;7.50;;;;;21.40;100786.00;;;;2067386;28;20206;-48
2022/05/10 04:43:30;;;;;;;8.20;7.50;;;;;21.40;100786.00;;;;2069308;28;20217;-48
2022/05/10 04:44:31;;;;;;;9.43;8.43;;;;;21.30;100786.00;;;;2069609;28;20291;-50
2022/05/10 04:45:32;;;;;;;9.23;8.43;;;;;21.40;100794.00;;;;2069219;28;20481;-48
2022/05/10 04:46:35;;;;;;;8.77;8.07;;;;;21.30;100793.00;;;;2069817;28;20228;-50
2022/05/10 04:47:35;;;;;;;9.18;8.27;;;;;21.30;100790.00;;;;2069713;28;20712;-48
2022/05/10 04:48:36;;;;;;;9.70;8.90;;;;;21.30;100790.00;;;;2069920;28;20309;-49
2022/05/10 04:49:36;;;;;;;8.90;8.20;;;;;21.40;100791.00;;;;2069167;28;20296;-48
2022/05/10 04:50:36;;;;;;;9.47;8.57;;;;;21.40;100792.00;;;;2069114;28;20259;-49
2022/05/10 04:51:37;;;;;;;9.20;8.20;;;;;21.40;100792.00;;;;2069608;28;20272;-49
2022/05/10 04:52:37;;;;;;;8.77;7.97;;;;;21.40;100796.00;;;;2069923;28;20225;-48
2022/05/10 04:53:38;;;;;;;9.27;8.47;;;;;21.30;100789.00;;;;2069859;28;20213;-50
2022/05/10 04:54:40;;;;;;;8.80;7.90;;;;;21.50;100790.00;;;;2068183;28;20786;-49
2022/05/10 04:55:40;;;;;;;8.52;7.72;;;;;21.40;100793.00;;;;2068752;28;20675;-49
2022/05/10 04:56:41;;;;;;;8.40;7.60;;;;;21.50;100789.00;;;;2069824;28;20218;-49
2022/05/10 04:57:41;;;;;;;9.43;8.50;;;;;21.50;100788.00;;;;2069382;28;20262;-50
2022/05/10 04:58:43;;;;;;;8.70;8.10;;;;;21.40;100796.00;;;;2069543;28;20687;-47
2022/05/10 04:59:43;;;;;;;8.70;8.00;;;;;21.50;100799.00;;;;2076314;28;20229;-49
2022/05/10 05:00:43;;;;;;;8.57;7.87;;;;;21.50;100794.00;;;;2077770;28;20240;-48
2022/05/10 05:01:43;;;;;;;9.53;8.23;;;;;21.50;100797.00;;;;2077799;28;20218;-49
2022/05/10 05:02:46;;;;;;;8.50;7.80;;;;;21.50;100783.00;;;;2076047;28;20213;-48
2022/05/10 05:03:47;;;;;;;8.30;7.60;;;;;21.40;100794.00;;;;2069480;28;20280;-48
2022/05/10 05:04:48;;;;;;;9.55;8.60;;;;;21.40;100791.00;;;;2069898;28;20218;-49
2022/05/10 05:05:48;;;;;;;8.60;7.90;;;;;21.40;100790.00;;;;2076287;28;20213;-48
2022/05/10 05:06:50;;;;;;;8.07;7.47;;;;;21.40;100793.00;;;;2077276;28;20307;-49
2022/05/10 05:07:51;;;;;;;7.82;7.22;;;;;21.40;100797.00;;;;2077141;28;20731;-50
2022/05/10 05:08:51;;;;;;;10.47;8.33;;;;;21.40;100792.00;;;;2077630;28;20217;-50
2022/05/10 05:09:51;;;;;;;8.50;7.80;;;;;21.40;100791.00;;;;2077444;28;20244;-50
2022/05/10 05:10:53;;;;;;;8.43;7.63;;;;;21.40;100776.00;;;;2077294;28;20628;-50
2022/05/10 05:11:53;;;;;;;8.73;7.93;;;;;21.40;100788.00;;;;2069023;28;20805;-50
2022/05/10 05:12:53;;;;;;;8.30;7.47;;;;;21.40;100797.00;;;;2077741;28;20297;-50
2022/05/10 05:13:54;;;;;;;8.20;7.50;;;;;21.40;100793.00;;;;2079422;28;20226;-50
2022/05/10 05:14:54;;;;;;;11.00;7.80;;;;;21.40;100803.00;;;;2079442;28;20221;-50
2022/05/10 05:15:55;;;;;;;8.20;7.60;;;;;21.40;100798.00;;;;2078634;28;20236;-49